sensor_id;sensor_type;location;lat;lon;timestamp;P1;durP1;ratioP1;P2;durP2;ratioP2
52918;SDS011;38793;52.690;6.812;2023-12-20T00:01:28;11.68;;;2.10;;
52918;SDS011;38793;52.690;6.812;2023-12-20T00:03:54;8.70;;;1.30;;
52918;SDS011;38793;52.690;6.812;2023-12-20T00:06:20;9.00;;;1.13;;
52918;SDS011;38793;52.690;6.812;2023-12-20T00:08:45;17.60;;;1.53;;
52918;SDS011;38793;52.690;6.812;2023-12-20T00:11:11;14.77;;;1.03;;
52918;SDS011;38793;52.690;6.812;2023-12-20T00:13:36;11.23;;;1.73;;
52918;SDS011;38793;52.690;6.812;2023-12-20T00:16:02;15.77;;;1.30;;
52918;SDS011;38793;52.690;6.812;2023-12-20T00:18:28;12.38;;;1.75;;
52918;SDS011;38793;52.690;6.812;2023-12-20T00:20:54;9.20;;;1.47;;
52918;SDS011;38793;52.690;6.812;2023-12-20T00:23:19;8.57;;;1.17;;
52918;SDS011;38793;52.690;6.812;2023-12-20T00:25:45;9.93;;;0.80;;
52918;SDS011;38793;52.690;6.812;2023-12-20T00:28:11;9.20;;;1.97;;
52918;SDS011;38793;52.690;6.812;2023-12-20T00:30:36;8.47;;;1.60;;
52918;SDS011;38793;52.690;6.812;2023-12-20T00:33:02;17.97;;;1.93;;
52918;SDS011;38793;52.690;6.812;2023-12-20T00:35:28;13.98;;;2.17;;
52918;SDS011;38793;52.690;6.812;2023-12-20T00:37:53;13.83;;;1.77;;
52918;SDS011;38793;52.690;6.812;2023-12-20T00:40:19;9.07;;;1.33;;
52918;SDS011;38793;52.690;6.812;2023-12-20T00:42:45;9.90;;;2.00;;
52918;SDS011;38793;52.690;6.812;2023-12-20T00:45:12;9.48;;;0.82;;
52918;SDS011;38793;52.690;6.812;2023-12-20T00:47:37;12.27;;;1.88;;
52918;SDS011;38793;52.690;6.812;2023-12-20T00:50:03;8.00;;;1.60;;
52918;SDS011;38793;52.690;6.812;2023-12-20T00:52:29;9.80;;;1.52;;
52918;SDS011;38793;52.690;6.812;2023-12-20T00:54:55;14.57;;;1.23;;
52918;SDS011;38793;52.690;6.812;2023-12-20T00:57:20;8.73;;;1.60;;
52918;SDS011;38793;52.690;6.812;2023-12-20T00:59:46;19.57;;;2.37;;
52918;SDS011;38793;52.690;6.812;2023-12-20T01:02:11;15.50;;;1.90;;
52918;SDS011;38793;52.690;6.812;2023-12-20T01:04:37;15.63;;;1.60;;
52918;SDS011;38793;52.690;6.812;2023-12-20T01:07:02;13.63;;;1.90;;
52918;SDS011;38793;52.690;6.812;2023-12-20T01:09:28;10.03;;;1.70;;
52918;SDS011;38793;52.690;6.812;2023-12-20T01:11:54;14.13;;;1.37;;
52918;SDS011;38793;52.690;6.812;2023-12-20T01:14:19;19.23;;;1.87;;
52918;SDS011;38793;52.690;6.812;2023-12-20T01:16:45;21.85;;;1.92;;
52918;SDS011;38793;52.690;6.812;2023-12-20T01:19:11;9.87;;;2.03;;
52918;SDS011;38793;52.690;6.812;2023-12-20T01:21:38;14.80;;;2.42;;
52918;SDS011;38793;52.690;6.812;2023-12-20T01:24:04;17.35;;;2.53;;
52918;SDS011;38793;52.690;6.812;2023-12-20T01:26:29;8.67;;;1.90;;
52918;SDS011;38793;52.690;6.812;2023-12-20T01:28:55;9.30;;;2.07;;
52918;SDS011;38793;52.690;6.812;2023-12-20T01:31:21;15.33;;;1.47;;
52918;SDS011;38793;52.690;6.812;2023-12-20T01:33:46;7.67;;;1.63;;
52918;SDS011;38793;52.690;6.812;2023-12-20T01:36:12;11.73;;;2.23;;
52918;SDS011;38793;52.690;6.812;2023-12-20T01:38:37;16.33;;;1.97;;
52918;SDS011;38793;52.690;6.812;2023-12-20T01:41:03;7.00;;;1.50;;
52918;SDS011;38793;52.690;6.812;2023-12-20T01:43:29;14.32;;;1.85;;
52918;SDS011;38793;52.690;6.812;2023-12-20T01:45:58;11.43;;;2.25;;
52918;SDS011;38793;52.690;6.812;2023-12-20T01:48:25;11.10;;;2.25;;
52918;SDS011;38793;52.690;6.812;2023-12-20T01:53:18;10.55;;;1.55;;
52918;SDS011;38793;52.690;6.812;2023-12-20T01:55:46;12.32;;;3.13;;
52918;SDS011;38793;52.690;6.812;2023-12-20T01:58:13;17.35;;;2.80;;
52918;SDS011;38793;52.690;6.812;2023-12-20T02:00:39;10.50;;;1.98;;
52918;SDS011;38793;52.690;6.812;2023-12-20T02:03:05;15.95;;;2.47;;
52918;SDS011;38793;52.690;6.812;2023-12-20T02:05:31;20.38;;;2.85;;
52918;SDS011;38793;52.690;6.812;2023-12-20T02:07:59;17.55;;;3.25;;
52918;SDS011;38793;52.690;6.812;2023-12-20T02:10:24;18.73;;;2.90;;
52918;SDS011;38793;52.690;6.812;2023-12-20T02:12:51;15.82;;;1.92;;
52918;SDS011;38793;52.690;6.812;2023-12-20T02:15:16;14.80;;;3.33;;
52918;SDS011;38793;52.690;6.812;2023-12-20T02:17:42;24.20;;;3.00;;
52918;SDS011;38793;52.690;6.812;2023-12-20T02:20:10;11.77;;;1.48;;
52918;SDS011;38793;52.690;6.812;2023-12-20T02:22:35;19.33;;;2.07;;
52918;SDS011;38793;52.690;6.812;2023-12-20T02:25:01;16.00;;;2.00;;
52918;SDS011;38793;52.690;6.812;2023-12-20T02:27:27;9.03;;;1.67;;
52918;SDS011;38793;52.690;6.812;2023-12-20T02:29:53;26.92;;;3.72;;
52918;SDS011;38793;52.690;6.812;2023-12-20T02:32:19;33.53;;;3.40;;
52918;SDS011;38793;52.690;6.812;2023-12-20T02:34:49;22.42;;;3.38;;
52918;SDS011;38793;52.690;6.812;2023-12-20T02:37:14;21.70;;;2.13;;
52918;SDS011;38793;52.690;6.812;2023-12-20T02:39:40;22.15;;;2.90;;
52918;SDS011;38793;52.690;6.812;2023-12-20T02:42:06;19.20;;;2.58;;
52918;SDS011;38793;52.690;6.812;2023-12-20T02:44:31;16.33;;;2.90;;
52918;SDS011;38793;52.690;6.812;2023-12-20T02:46:57;21.63;;;2.60;;
52918;SDS011;38793;52.690;6.812;2023-12-20T02:49:23;13.37;;;2.47;;
52918;SDS011;38793;52.690;6.812;2023-12-20T02:51:48;14.27;;;2.60;;
52918;SDS011;38793;52.690;6.812;2023-12-20T02:54:14;19.00;;;3.27;;
52918;SDS011;38793;52.690;6.812;2023-12-20T02:56:40;16.63;;;1.87;;
52918;SDS011;38793;52.690;6.812;2023-12-20T02:59:05;14.93;;;2.00;;
52918;SDS011;38793;52.690;6.812;2023-12-20T03:01:33;13.93;;;2.05;;
52918;SDS011;38793;52.690;6.812;2023-12-20T03:03:59;24.33;;;3.78;;
52918;SDS011;38793;52.690;6.812;2023-12-20T03:06:25;19.83;;;2.17;;
52918;SDS011;38793;52.690;6.812;2023-12-20T03:08:50;16.17;;;2.73;;
52918;SDS011;38793;52.690;6.812;2023-12-20T03:11:16;18.77;;;2.67;;
52918;SDS011;38793;52.690;6.812;2023-12-20T03:13:41;17.57;;;3.43;;
52918;SDS011;38793;52.690;6.812;2023-12-20T03:16:08;18.73;;;2.97;;
52918;SDS011;38793;52.690;6.812;2023-12-20T03:18:34;13.48;;;3.22;;
52918;SDS011;38793;52.690;6.812;2023-12-20T03:21:00;22.13;;;4.30;;
52918;SDS011;38793;52.690;6.812;2023-12-20T03:23:25;17.80;;;3.50;;
52918;SDS011;38793;52.690;6.812;2023-12-20T03:25:52;18.08;;;2.92;;
52918;SDS011;38793;52.690;6.812;2023-12-20T03:28:18;22.88;;;3.92;;
52918;SDS011;38793;52.690;6.812;2023-12-20T03:30:44;25.27;;;4.20;;
52918;SDS011;38793;52.690;6.812;2023-12-20T03:33:09;18.67;;;4.13;;
52918;SDS011;38793;52.690;6.812;2023-12-20T03:35:35;16.10;;;3.35;;
52918;SDS011;38793;52.690;6.812;2023-12-20T03:38:01;28.17;;;4.23;;
52918;SDS011;38793;52.690;6.812;2023-12-20T03:40:27;33.77;;;3.97;;
52918;SDS011;38793;52.690;6.812;2023-12-20T03:42:52;20.83;;;3.73;;
52918;SDS011;38793;52.690;6.812;2023-12-20T03:45:18;25.07;;;3.90;;
52918;SDS011;38793;52.690;6.812;2023-12-20T03:47:43;25.43;;;3.47;;
52918;SDS011;38793;52.690;6.812;2023-12-20T03:50:09;22.10;;;4.03;;
52918;SDS011;38793;52.690;6.812;2023-12-20T03:52:34;27.60;;;4.97;;
52918;SDS011;38793;52.690;6.812;2023-12-20T03:55:00;15.87;;;3.30;;
52918;SDS011;38793;52.690;6.812;2023-12-20T03:57:26;29.93;;;4.40;;
52918;SDS011;38793;52.690;6.812;2023-12-20T03:59:51;28.63;;;3.90;;
52918;SDS011;38793;52.690;6.812;2023-12-20T04:02:17;21.63;;;3.63;;
52918;SDS011;38793;52.690;6.812;2023-12-20T04:04:43;20.00;;;3.67;;
52918;SDS011;38793;52.690;6.812;2023-12-20T04:07:08;17.60;;;3.33;;
52918;SDS011;38793;52.690;6.812;2023-12-20T04:09:34;28.67;;;4.40;;
52918;SDS011;38793;52.690;6.812;2023-12-20T04:12:00;18.03;;;2.77;;
52918;SDS011;38793;52.690;6.812;2023-12-20T04:14:26;24.85;;;4.13;;
52918;SDS011;38793;52.690;6.812;2023-12-20T04:16:52;24.13;;;4.03;;
52918;SDS011;38793;52.690;6.812;2023-12-20T04:19:17;30.15;;;4.47;;
52918;SDS011;38793;52.690;6.812;2023-12-20T04:21:43;23.37;;;4.00;;
52918;SDS011;38793;52.690;6.812;2023-12-20T04:24:08;18.37;;;3.90;;
52918;SDS011;38793;52.690;6.812;2023-12-20T04:26:34;44.10;;;4.60;;
52918;SDS011;38793;52.690;6.812;2023-12-20T04:29:00;26.53;;;5.43;;
52918;SDS011;38793;52.690;6.812;2023-12-20T04:31:25;28.33;;;4.00;;
52918;SDS011;38793;52.690;6.812;2023-12-20T04:33:51;34.77;;;4.30;;
52918;SDS011;38793;52.690;6.812;2023-12-20T04:36:16;27.93;;;4.13;;
52918;SDS011;38793;52.690;6.812;2023-12-20T04:38:42;23.50;;;4.33;;
52918;SDS011;38793;52.690;6.812;2023-12-20T04:41:08;22.30;;;3.77;;
52918;SDS011;38793;52.690;6.812;2023-12-20T04:43:33;27.80;;;3.30;;
52918;SDS011;38793;52.690;6.812;2023-12-20T04:45:59;24.20;;;4.13;;
52918;SDS011;38793;52.690;6.812;2023-12-20T04:48:24;27.17;;;6.13;;
52918;SDS011;38793;52.690;6.812;2023-12-20T04:50:50;21.50;;;3.20;;
52918;SDS011;38793;52.690;6.812;2023-12-20T04:53:15;27.73;;;4.53;;
52918;SDS011;38793;52.690;6.812;2023-12-20T04:55:41;26.13;;;4.33;;
52918;SDS011;38793;52.690;6.812;2023-12-20T04:58:07;24.03;;;4.77;;
52918;SDS011;38793;52.690;6.812;2023-12-20T05:00:32;33.35;;;4.78;;
52918;SDS011;38793;52.690;6.812;2023-12-20T05:02:58;24.67;;;4.13;;
52918;SDS011;38793;52.690;6.812;2023-12-20T05:05:24;29.20;;;5.50;;
52918;SDS011;38793;52.690;6.812;2023-12-20T05:07:49;24.40;;;4.63;;
52918;SDS011;38793;52.690;6.812;2023-12-20T05:10:15;29.60;;;4.30;;
52918;SDS011;38793;52.690;6.812;2023-12-20T05:12:41;28.92;;;4.35;;
52918;SDS011;38793;52.690;6.812;2023-12-20T05:15:06;28.00;;;5.50;;
52918;SDS011;38793;52.690;6.812;2023-12-20T05:17:32;26.17;;;4.63;;
52918;SDS011;38793;52.690;6.812;2023-12-20T05:19:58;27.50;;;4.17;;
52918;SDS011;38793;52.690;6.812;2023-12-20T05:22:23;41.05;;;5.47;;
52918;SDS011;38793;52.690;6.812;2023-12-20T05:24:49;24.10;;;3.90;;
52918;SDS011;38793;52.690;6.812;2023-12-20T05:27:15;24.23;;;5.37;;
52918;SDS011;38793;52.690;6.812;2023-12-20T05:29:40;22.47;;;3.73;;
52918;SDS011;38793;52.690;6.812;2023-12-20T05:32:06;23.93;;;4.53;;
52918;SDS011;38793;52.690;6.812;2023-12-20T05:34:32;22.73;;;4.87;;
52918;SDS011;38793;52.690;6.812;2023-12-20T05:36:57;20.20;;;4.00;;
52918;SDS011;38793;52.690;6.812;2023-12-20T05:39:23;32.40;;;5.20;;
52918;SDS011;38793;52.690;6.812;2023-12-20T05:41:49;27.27;;;4.43;;
52918;SDS011;38793;52.690;6.812;2023-12-20T05:44:14;35.07;;;5.43;;
52918;SDS011;38793;52.690;6.812;2023-12-20T05:46:40;31.30;;;6.03;;
52918;SDS011;38793;52.690;6.812;2023-12-20T05:49:06;33.30;;;4.70;;
52918;SDS011;38793;52.690;6.812;2023-12-20T05:51:31;27.27;;;4.00;;
52918;SDS011;38793;52.690;6.812;2023-12-20T05:53:58;29.80;;;5.23;;
52918;SDS011;38793;52.690;6.812;2023-12-20T05:56:24;31.27;;;6.10;;
52918;SDS011;38793;52.690;6.812;2023-12-20T05:58:49;32.80;;;5.30;;
52918;SDS011;38793;52.690;6.812;2023-12-20T06:01:15;26.10;;;4.45;;
52918;SDS011;38793;52.690;6.812;2023-12-20T06:03:44;30.38;;;5.07;;
52918;SDS011;38793;52.690;6.812;2023-12-20T06:06:11;22.98;;;4.72;;
52918;SDS011;38793;52.690;6.812;2023-12-20T06:08:37;35.08;;;5.15;;
52918;SDS011;38793;52.690;6.812;2023-12-20T06:11:03;25.63;;;4.35;;
52918;SDS011;38793;52.690;6.812;2023-12-20T06:13:30;29.02;;;5.55;;
52918;SDS011;38793;52.690;6.812;2023-12-20T06:15:56;25.67;;;4.18;;
52918;SDS011;38793;52.690;6.812;2023-12-20T06:18:22;37.20;;;4.53;;
52918;SDS011;38793;52.690;6.812;2023-12-20T06:20:47;21.10;;;4.57;;
52918;SDS011;38793;52.690;6.812;2023-12-20T06:23:13;31.13;;;4.95;;
52918;SDS011;38793;52.690;6.812;2023-12-20T06:25:39;25.27;;;3.83;;
52918;SDS011;38793;52.690;6.812;2023-12-20T06:28:04;26.50;;;4.20;;
52918;SDS011;38793;52.690;6.812;2023-12-20T06:30:31;24.88;;;5.25;;
52918;SDS011;38793;52.690;6.812;2023-12-20T06:32:57;33.50;;;6.13;;
52918;SDS011;38793;52.690;6.812;2023-12-20T06:35:23;31.92;;;5.28;;
52918;SDS011;38793;52.690;6.812;2023-12-20T06:37:49;26.02;;;5.15;;
52918;SDS011;38793;52.690;6.812;2023-12-20T06:40:15;23.58;;;4.30;;
52918;SDS011;38793;52.690;6.812;2023-12-20T06:42:41;26.77;;;5.75;;
52918;SDS011;38793;52.690;6.812;2023-12-20T06:45:07;28.15;;;4.95;;
52918;SDS011;38793;52.690;6.812;2023-12-20T06:47:33;33.80;;;5.07;;
52918;SDS011;38793;52.690;6.812;2023-12-20T06:49:58;24.37;;;4.00;;
52918;SDS011;38793;52.690;6.812;2023-12-20T06:52:24;16.38;;;3.38;;
52918;SDS011;38793;52.690;6.812;2023-12-20T06:54:50;24.17;;;5.23;;
52918;SDS011;38793;52.690;6.812;2023-12-20T06:57:16;24.30;;;4.23;;
52918;SDS011;38793;52.690;6.812;2023-12-20T06:59:41;23.53;;;3.97;;
52918;SDS011;38793;52.690;6.812;2023-12-20T07:02:08;25.42;;;4.65;;
52918;SDS011;38793;52.690;6.812;2023-12-20T07:06:59;18.38;;;3.28;;
52918;SDS011;38793;52.690;6.812;2023-12-20T07:09:25;16.63;;;3.50;;
52918;SDS011;38793;52.690;6.812;2023-12-20T07:11:52;25.90;;;3.95;;
52918;SDS011;38793;52.690;6.812;2023-12-20T07:14:18;24.17;;;3.72;;
52918;SDS011;38793;52.690;6.812;2023-12-20T07:16:43;23.63;;;4.90;;
52918;SDS011;38793;52.690;6.812;2023-12-20T07:19:09;32.57;;;4.47;;
52918;SDS011;38793;52.690;6.812;2023-12-20T07:21:34;26.23;;;3.40;;
52918;SDS011;38793;52.690;6.812;2023-12-20T07:24:00;21.80;;;4.20;;
52918;SDS011;38793;52.690;6.812;2023-12-20T07:26:26;33.80;;;4.73;;
52918;SDS011;38793;52.690;6.812;2023-12-20T07:28:51;23.90;;;3.50;;
52918;SDS011;38793;52.690;6.812;2023-12-20T07:31:17;19.47;;;4.23;;
52918;SDS011;38793;52.690;6.812;2023-12-20T07:33:43;23.48;;;4.18;;
52918;SDS011;38793;52.690;6.812;2023-12-20T07:36:08;22.17;;;3.60;;
52918;SDS011;38793;52.690;6.812;2023-12-20T07:38:34;26.13;;;4.40;;
52918;SDS011;38793;52.690;6.812;2023-12-20T07:41:00;17.10;;;3.60;;
52918;SDS011;38793;52.690;6.812;2023-12-20T07:43:25;29.23;;;3.80;;
52918;SDS011;38793;52.690;6.812;2023-12-20T07:45:51;21.30;;;5.00;;
52918;SDS011;38793;52.690;6.812;2023-12-20T07:48:16;25.53;;;4.13;;
52918;SDS011;38793;52.690;6.812;2023-12-20T07:50:42;21.03;;;4.60;;
52918;SDS011;38793;52.690;6.812;2023-12-20T07:53:08;23.20;;;4.37;;
52918;SDS011;38793;52.690;6.812;2023-12-20T07:55:33;26.70;;;2.87;;
52918;SDS011;38793;52.690;6.812;2023-12-20T07:57:59;19.88;;;3.70;;
52918;SDS011;38793;52.690;6.812;2023-12-20T08:00:25;24.08;;;3.97;;
52918;SDS011;38793;52.690;6.812;2023-12-20T08:02:52;20.35;;;3.85;;
52918;SDS011;38793;52.690;6.812;2023-12-20T08:05:17;27.03;;;3.57;;
52918;SDS011;38793;52.690;6.812;2023-12-20T08:07:43;27.13;;;3.75;;
52918;SDS011;38793;52.690;6.812;2023-12-20T08:10:09;21.37;;;3.93;;
52918;SDS011;38793;52.690;6.812;2023-12-20T08:12:35;29.20;;;4.43;;
52918;SDS011;38793;52.690;6.812;2023-12-20T08:15:01;28.10;;;3.88;;
52918;SDS011;38793;52.690;6.812;2023-12-20T08:17:27;24.85;;;5.00;;
52918;SDS011;38793;52.690;6.812;2023-12-20T08:19:52;26.33;;;3.60;;
52918;SDS011;38793;52.690;6.812;2023-12-20T08:22:18;26.60;;;3.90;;
52918;SDS011;38793;52.690;6.812;2023-12-20T08:24:44;28.15;;;5.13;;
52918;SDS011;38793;52.690;6.812;2023-12-20T08:27:09;26.10;;;4.33;;
52918;SDS011;38793;52.690;6.812;2023-12-20T08:29:35;31.53;;;5.57;;
52918;SDS011;38793;52.690;6.812;2023-12-20T08:32:01;29.17;;;5.20;;
52918;SDS011;38793;52.690;6.812;2023-12-20T08:34:27;33.40;;;6.78;;
52918;SDS011;38793;52.690;6.812;2023-12-20T08:36:53;27.25;;;3.95;;
52918;SDS011;38793;52.690;6.812;2023-12-20T08:39:18;27.35;;;4.18;;
52918;SDS011;38793;52.690;6.812;2023-12-20T08:41:44;28.58;;;5.05;;
52918;SDS011;38793;52.690;6.812;2023-12-20T08:44:10;32.10;;;4.83;;
52918;SDS011;38793;52.690;6.812;2023-12-20T08:46:35;18.73;;;4.03;;
52918;SDS011;38793;52.690;6.812;2023-12-20T08:49:02;27.60;;;4.18;;
52918;SDS011;38793;52.690;6.812;2023-12-20T08:51:27;28.67;;;6.13;;
52918;SDS011;38793;52.690;6.812;2023-12-20T08:53:53;27.85;;;4.47;;
52918;SDS011;38793;52.690;6.812;2023-12-20T08:56:19;48.67;;;8.13;;
52918;SDS011;38793;52.690;6.812;2023-12-20T08:58:45;20.42;;;4.25;;
52918;SDS011;38793;52.690;6.812;2023-12-20T09:03:37;29.05;;;5.65;;
52918;SDS011;38793;52.690;6.812;2023-12-20T09:06:04;30.45;;;6.03;;
52918;SDS011;38793;52.690;6.812;2023-12-20T09:08:30;27.05;;;4.30;;
52918;SDS011;38793;52.690;6.812;2023-12-20T09:10:56;33.63;;;4.80;;
52918;SDS011;38793;52.690;6.812;2023-12-20T09:13:21;29.83;;;4.60;;
52918;SDS011;38793;52.690;6.812;2023-12-20T09:15:52;21.75;;;4.18;;
52918;SDS011;38793;52.690;6.812;2023-12-20T09:18:21;26.20;;;5.30;;
52918;SDS011;38793;52.690;6.812;2023-12-20T09:20:47;21.97;;;3.90;;
52918;SDS011;38793;52.690;6.812;2023-12-20T09:23:12;26.20;;;4.60;;
52918;SDS011;38793;52.690;6.812;2023-12-20T09:25:38;22.90;;;5.10;;
52918;SDS011;38793;52.690;6.812;2023-12-20T09:28:04;26.33;;;5.83;;
52918;SDS011;38793;52.690;6.812;2023-12-20T09:30:29;36.42;;;4.95;;
52918;SDS011;38793;52.690;6.812;2023-12-20T09:32:55;19.57;;;3.30;;
52918;SDS011;38793;52.690;6.812;2023-12-20T09:35:21;31.67;;;5.53;;
52918;SDS011;38793;52.690;6.812;2023-12-20T09:37:47;29.48;;;5.50;;
52918;SDS011;38793;52.690;6.812;2023-12-20T09:40:13;28.42;;;3.85;;
52918;SDS011;38793;52.690;6.812;2023-12-20T09:42:58;21.88;;;5.32;;
52918;SDS011;38793;52.690;6.812;2023-12-20T09:45:28;33.60;;;4.95;;
52918;SDS011;38793;52.690;6.812;2023-12-20T09:47:55;30.08;;;5.15;;
52918;SDS011;38793;52.690;6.812;2023-12-20T09:50:22;24.55;;;4.22;;
52918;SDS011;38793;52.690;6.812;2023-12-20T09:52:49;22.65;;;3.45;;
52918;SDS011;38793;52.690;6.812;2023-12-20T09:55:19;23.55;;;3.85;;
52918;SDS011;38793;52.690;6.812;2023-12-20T09:57:46;30.15;;;5.10;;
52918;SDS011;38793;52.690;6.812;2023-12-20T10:00:13;19.60;;;4.47;;
52918;SDS011;38793;52.690;6.812;2023-12-20T10:02:42;25.65;;;3.00;;
52918;SDS011;38793;52.690;6.812;2023-12-20T10:05:18;23.67;;;4.07;;
52918;SDS011;38793;52.690;6.812;2023-12-20T10:07:53;25.95;;;4.00;;
52918;SDS011;38793;52.690;6.812;2023-12-20T10:10:19;28.27;;;4.03;;
52918;SDS011;38793;52.690;6.812;2023-12-20T10:15:31;19.83;;;3.67;;
52918;SDS011;38793;52.690;6.812;2023-12-20T10:18:00;12.40;;;1.50;;
52918;SDS011;38793;52.690;6.812;2023-12-20T10:20:26;7.78;;;1.33;;
52918;SDS011;38793;52.690;6.812;2023-12-20T10:22:54;11.38;;;1.77;;
52918;SDS011;38793;52.690;6.812;2023-12-20T10:25:23;8.38;;;1.15;;
52918;SDS011;38793;52.690;6.812;2023-12-20T10:27:50;8.85;;;0.77;;
52918;SDS011;38793;52.690;6.812;2023-12-20T10:30:33;9.85;;;1.33;;
52918;SDS011;38793;52.690;6.812;2023-12-20T10:32:58;7.07;;;0.87;;
52918;SDS011;38793;52.690;6.812;2023-12-20T10:35:24;10.03;;;1.20;;
52918;SDS011;38793;52.690;6.812;2023-12-20T10:37:50;7.30;;;1.03;;
52918;SDS011;38793;52.690;6.812;2023-12-20T10:40:20;8.45;;;1.02;;
52918;SDS011;38793;52.690;6.812;2023-12-20T10:42:47;6.75;;;0.88;;
52918;SDS011;38793;52.690;6.812;2023-12-20T10:45:13;12.35;;;1.27;;
52918;SDS011;38793;52.690;6.812;2023-12-20T10:47:38;10.10;;;0.83;;
52918;SDS011;38793;52.690;6.812;2023-12-20T10:50:05;6.40;;;1.65;;
52918;SDS011;38793;52.690;6.812;2023-12-20T10:52:32;8.60;;;0.90;;
52918;SDS011;38793;52.690;6.812;2023-12-20T10:55:00;7.78;;;1.00;;
52918;SDS011;38793;52.690;6.812;2023-12-20T10:57:26;5.00;;;0.50;;
52918;SDS011;38793;52.690;6.812;2023-12-20T10:59:53;12.82;;;0.75;;
52918;SDS011;38793;52.690;6.812;2023-12-20T11:02:19;8.40;;;1.30;;
52918;SDS011;38793;52.690;6.812;2023-12-20T11:04:56;8.48;;;0.98;;
52918;SDS011;38793;52.690;6.812;2023-12-20T11:07:43;5.32;;;1.15;;
52918;SDS011;38793;52.690;6.812;2023-12-20T11:10:26;6.38;;;0.90;;
52918;SDS011;38793;52.690;6.812;2023-12-20T11:15:42;9.73;;;1.00;;
52918;SDS011;38793;52.690;6.812;2023-12-20T11:18:08;9.30;;;1.50;;
52918;SDS011;38793;52.690;6.812;2023-12-20T11:20:40;11.00;;;1.10;;
52918;SDS011;38793;52.690;6.812;2023-12-20T11:23:10;6.00;;;1.08;;
52918;SDS011;38793;52.690;6.812;2023-12-20T11:25:57;9.02;;;1.10;;
52918;SDS011;38793;52.690;6.812;2023-12-20T11:28:25;7.80;;;0.70;;
52918;SDS011;38793;52.690;6.812;2023-12-20T11:30:55;8.55;;;1.38;;
52918;SDS011;38793;52.690;6.812;2023-12-20T11:33:37;11.07;;;1.25;;
52918;SDS011;38793;52.690;6.812;2023-12-20T11:36:06;7.60;;;0.52;;
52918;SDS011;38793;52.690;6.812;2023-12-20T11:38:38;5.00;;;1.42;;
52918;SDS011;38793;52.690;6.812;2023-12-20T11:41:14;7.15;;;1.15;;
52918;SDS011;38793;52.690;6.812;2023-12-20T11:43:41;12.00;;;1.45;;
52918;SDS011;38793;52.690;6.812;2023-12-20T11:46:07;10.60;;;1.60;;
52918;SDS011;38793;52.690;6.812;2023-12-20T11:48:37;11.85;;;0.63;;
52918;SDS011;38793;52.690;6.812;2023-12-20T11:51:13;4.68;;;0.60;;
52918;SDS011;38793;52.690;6.812;2023-12-20T11:53:39;5.70;;;1.05;;
52918;SDS011;38793;52.690;6.812;2023-12-20T11:56:07;6.63;;;1.10;;
52918;SDS011;38793;52.690;6.812;2023-12-20T11:58:33;12.75;;;1.52;;
52918;SDS011;38793;52.690;6.812;2023-12-20T12:00:59;10.25;;;0.98;;
52918;SDS011;38793;52.690;6.812;2023-12-20T12:03:27;13.73;;;2.50;;
52918;SDS011;38793;52.690;6.812;2023-12-20T12:05:53;7.40;;;0.60;;
52918;SDS011;38793;52.690;6.812;2023-12-20T12:08:18;8.53;;;1.80;;
52918;SDS011;38793;52.690;6.812;2023-12-20T12:10:44;10.07;;;1.63;;
52918;SDS011;38793;52.690;6.812;2023-12-20T12:13:10;14.10;;;1.40;;
52918;SDS011;38793;52.690;6.812;2023-12-20T12:15:36;9.02;;;1.30;;
52918;SDS011;38793;52.690;6.812;2023-12-20T12:18:02;20.05;;;1.45;;
52918;SDS011;38793;52.690;6.812;2023-12-20T12:20:30;12.50;;;1.30;;
52918;SDS011;38793;52.690;6.812;2023-12-20T12:22:59;11.88;;;1.75;;
52918;SDS011;38793;52.690;6.812;2023-12-20T12:25:26;11.75;;;1.00;;
52918;SDS011;38793;52.690;6.812;2023-12-20T12:27:52;14.73;;;1.15;;
52918;SDS011;38793;52.690;6.812;2023-12-20T12:30:18;10.68;;;1.00;;
52918;SDS011;38793;52.690;6.812;2023-12-20T12:32:44;8.33;;;1.40;;
52918;SDS011;38793;52.690;6.812;2023-12-20T12:35:10;9.80;;;0.73;;
52918;SDS011;38793;52.690;6.812;2023-12-20T12:37:37;7.95;;;2.30;;
52918;SDS011;38793;52.690;6.812;2023-12-20T12:40:05;6.70;;;0.60;;
52918;SDS011;38793;52.690;6.812;2023-12-20T12:42:38;8.50;;;0.90;;
52918;SDS011;38793;52.690;6.812;2023-12-20T12:47:30;10.13;;;1.02;;
52918;SDS011;38793;52.690;6.812;2023-12-20T12:49:56;6.80;;;1.10;;
52918;SDS011;38793;52.690;6.812;2023-12-20T12:52:22;7.80;;;0.90;;
52918;SDS011;38793;52.690;6.812;2023-12-20T12:54:47;9.10;;;0.97;;
52918;SDS011;38793;52.690;6.812;2023-12-20T12:57:14;4.55;;;0.75;;
52918;SDS011;38793;52.690;6.812;2023-12-20T12:59:43;7.03;;;1.02;;
52918;SDS011;38793;52.690;6.812;2023-12-20T13:02:11;7.65;;;1.08;;
52918;SDS011;38793;52.690;6.812;2023-12-20T13:04:37;8.15;;;1.02;;
52918;SDS011;38793;52.690;6.812;2023-12-20T13:07:02;5.17;;;1.03;;
52918;SDS011;38793;52.690;6.812;2023-12-20T13:09:28;10.50;;;0.82;;
52918;SDS011;38793;52.690;6.812;2023-12-20T13:11:54;3.42;;;0.70;;
52918;SDS011;38793;52.690;6.812;2023-12-20T13:14:19;7.40;;;0.77;;
52918;SDS011;38793;52.690;6.812;2023-12-20T13:16:45;16.13;;;1.73;;
52918;SDS011;38793;52.690;6.812;2023-12-20T13:19:11;7.00;;;1.00;;
52918;SDS011;38793;52.690;6.812;2023-12-20T13:21:36;10.47;;;1.73;;
52918;SDS011;38793;52.690;6.812;2023-12-20T13:24:02;8.17;;;1.27;;
52918;SDS011;38793;52.690;6.812;2023-12-20T13:26:28;7.85;;;1.15;;
52918;SDS011;38793;52.690;6.812;2023-12-20T13:28:55;6.88;;;1.15;;
52918;SDS011;38793;52.690;6.812;2023-12-20T13:31:20;9.40;;;1.43;;
52918;SDS011;38793;52.690;6.812;2023-12-20T13:33:46;8.07;;;1.03;;
52918;SDS011;38793;52.690;6.812;2023-12-20T13:36:12;5.17;;;0.70;;
52918;SDS011;38793;52.690;6.812;2023-12-20T13:38:38;12.60;;;1.30;;
52918;SDS011;38793;52.690;6.812;2023-12-20T13:41:04;5.60;;;0.95;;
52918;SDS011;38793;52.690;6.812;2023-12-20T13:43:31;10.65;;;1.50;;
52918;SDS011;38793;52.690;6.812;2023-12-20T13:45:57;12.15;;;1.52;;
52918;SDS011;38793;52.690;6.812;2023-12-20T13:48:26;10.13;;;0.90;;
52918;SDS011;38793;52.690;6.812;2023-12-20T13:50:52;11.27;;;1.33;;
52918;SDS011;38793;52.690;6.812;2023-12-20T13:53:18;8.00;;;0.93;;
52918;SDS011;38793;52.690;6.812;2023-12-20T13:55:44;5.45;;;1.02;;
52918;SDS011;38793;52.690;6.812;2023-12-20T13:58:10;8.33;;;0.93;;
52918;SDS011;38793;52.690;6.812;2023-12-20T14:00:35;10.63;;;0.90;;
52918;SDS011;38793;52.690;6.812;2023-12-20T14:03:02;5.18;;;0.60;;
52918;SDS011;38793;52.690;6.812;2023-12-20T14:05:28;7.50;;;0.70;;
52918;SDS011;38793;52.690;6.812;2023-12-20T14:07:54;6.82;;;0.65;;
52918;SDS011;38793;52.690;6.812;2023-12-20T14:10:23;5.28;;;0.60;;
52918;SDS011;38793;52.690;6.812;2023-12-20T14:12:51;7.43;;;0.60;;
52918;SDS011;38793;52.690;6.812;2023-12-20T14:15:18;10.57;;;1.23;;
52918;SDS011;38793;52.690;6.812;2023-12-20T14:17:44;11.77;;;1.83;;
52918;SDS011;38793;52.690;6.812;2023-12-20T14:20:10;8.57;;;1.05;;
52918;SDS011;38793;52.690;6.812;2023-12-20T14:22:39;7.18;;;1.58;;
52918;SDS011;38793;52.690;6.812;2023-12-20T14:25:10;6.45;;;0.70;;
52918;SDS011;38793;52.690;6.812;2023-12-20T14:27:37;10.70;;;1.63;;
52918;SDS011;38793;52.690;6.812;2023-12-20T14:30:03;4.63;;;1.25;;
52918;SDS011;38793;52.690;6.812;2023-12-20T14:32:30;7.07;;;1.27;;
52918;SDS011;38793;52.690;6.812;2023-12-20T14:34:56;5.20;;;0.82;;
52918;SDS011;38793;52.690;6.812;2023-12-20T14:37:22;5.57;;;0.97;;
52918;SDS011;38793;52.690;6.812;2023-12-20T14:39:47;10.93;;;1.40;;
52918;SDS011;38793;52.690;6.812;2023-12-20T14:42:13;6.97;;;0.77;;
52918;SDS011;38793;52.690;6.812;2023-12-20T14:44:42;10.13;;;0.93;;
52918;SDS011;38793;52.690;6.812;2023-12-20T14:47:08;7.32;;;1.42;;
52918;SDS011;38793;52.690;6.812;2023-12-20T14:49:34;5.05;;;0.82;;